Time;durP1;ratioP1;P1;durP2;ratioP2;P2;SDS_P1;SDS_P2;PMS_P1;PMS_P2;Temp;Humidity;BMP_temperature;BMP_pressure;BME280_temperature;BME280_humidity;BME280_pressure;Samples;Min_cycle;Max_cycle;Signal;HPM_P1;HPM_P2
2021/03/05 12:07:58;;;;;;;21.97;13.20;;;20.70;40.80;;;;;;2571271;26;20278;31
2021/03/05 12:17:51;;;;;;;15.63;11.48;;;19.20;38.80;;;;;;4011053;32;20262;31
2021/03/05 12:20:21;;;;;;;19.90;12.70;;;19.00;38.90;;;;;;4083238;32;20132;31
2021/03/05 12:25:18;;;;;;;20.42;13.00;;;18.60;38.60;;;;;;4110590;26;22386;31
2021/03/05 12:27:48;;;;;;;15.63;10.13;;;18.40;38.60;;;;;;4110085;34;20119;31
2021/03/05 13:20:08;;;;;;;23.15;13.70;;;8.50;47.50;;;;;;4082806;31;20288;31
2021/03/05 13:32:38;;;;;;;18.30;10.90;;;6.30;55.30;;;;;;4059844;27;21052;31
2021/03/05 13:35:10;;;;;;;22.00;13.95;;;6.10;56.80;;;;;;4075791;34;20132;31
2021/03/05 13:38:04;;;;;;;30.15;14.90;;;6.00;56.90;;;;;;4039532;27;21744;31
2021/03/05 13:46:39;;;;;;;28.65;16.00;;;5.80;59.10;;;;;;4075903;27;21680;31
2021/03/05 13:52:09;;;;;;;23.27;14.50;;;5.60;59.00;;;;;;4045692;33;20116;31
2021/03/05 13:58:05;;;;;;;23.70;12.90;;;5.60;59.10;;;;;;4063062;27;20818;31
2021/03/05 14:00:44;;;;;;;23.30;13.20;;;5.50;59.90;;;;;;4073901;33;20232;31
2021/03/05 14:09:02;;;;;;;20.15;10.95;;;5.40;59.20;;;;;;4075164;34;20230;31
2021/03/05 14:17:25;;;;;;;25.60;12.40;;;5.10;60.50;;;;;;4081024;32;20112;31
2021/03/05 14:20:03;;;;;;;24.27;12.55;;;5.00;61.00;;;;;;4043835;34;20125;31
2021/03/05 14:25:49;;;;;;;21.27;12.10;;;4.80;62.40;;;;;;4057484;32;20105;31
2021/03/05 14:40:44;;;;;;;22.55;11.50;;;4.70;63.90;;;;;;3853169;30;21095;31
2021/03/05 14:43:44;;;;;;;19.65;13.30;;;4.70;63.20;;;;;;4030013;33;20989;31
2021/03/05 14:46:42;;;;;;;19.38;10.35;;;4.70;64.50;;;;;;4021362;35;20545;31
2021/03/05 14:49:16;;;;;;;20.58;10.45;;;4.60;63.60;;;;;;4057515;33;22183;31
2021/03/05 14:54:57;;;;;;;18.35;9.40;;;4.60;64.20;;;;;;3891461;30;20171;31
2021/03/05 14:59:58;;;;;;;22.70;11.17;;;4.60;63.80;;;;;;4060813;27;21576;31
2021/03/05 15:03:00;;;;;;;19.95;11.02;;;4.70;63.10;;;;;;4047831;34;20157;31
2021/03/05 15:11:22;;;;;;;20.60;10.95;;;4.70;63.40;;;;;;3877101;34;20109;31
2021/03/05 15:14:18;;;;;;;18.00;11.00;;;4.70;63.30;;;;;;4045030;34;20487;31
2021/03/05 15:19:38;;;;;;;19.60;11.15;;;4.70;63.70;;;;;;4056361;27;21431;31
2021/03/05 15:25:32;;;;;;;;;;;;;;;;;;;;;
2021/03/05 15:30:32;;;;;;;18.47;11.03;;;4.70;64.00;;;;;;4066911;32;20129;31
2021/03/05 15:33:06;;;;;;;21.08;11.55;;;4.70;63.90;;;;;;4044775;27;20116;31
2021/03/05 15:40:47;;;;;;;18.20;10.15;;;4.70;63.40;;;;;;4055601;27;20117;31
2021/03/05 15:46:12;;;;;;;21.80;11.53;;;4.70;64.20;;;;;;4034060;27;21214;31
2021/03/05 15:48:46;;;;;;;21.52;11.40;;;4.60;63.40;;;;;;4024450;27;20118;31
2021/03/05 15:54:13;;;;;;;20.17;10.80;;;4.60;63.50;;;;;;4046896;27;20124;31
2021/03/05 15:56:50;;;;;;;16.95;9.15;;;4.70;63.60;;;;;;4041480;33;20988;31
2021/03/05 15:59:26;;;;;;;17.80;9.98;;;4.70;63.40;;;;;;4045529;34;21115;31
2021/03/05 16:12:07;;;;;;;19.92;12.95;;;4.80;63.80;;;;;;4072168;27;20132;31
2021/03/05 16:14:37;;;;;;;27.25;15.55;;;4.70;64.00;;;;;;4059332;32;20154;31
2021/03/05 16:17:28;;;;;;;26.02;14.35;;;4.60;64.20;;;;;;4040127;33;20136;31
2021/03/05 16:20:06;;;;;;;22.55;13.45;;;4.60;64.60;;;;;;4057189;34;21389;31
2021/03/05 16:22:56;;;;;;;21.63;12.00;;;4.50;65.10;;;;;;4058665;34;20381;31
2021/03/05 16:28:15;;;;;;;25.38;12.82;;;4.50;65.10;;;;;;4058567;32;20106;31
2021/03/05 16:36:43;;;;;;;23.80;12.70;;;4.50;65.00;;;;;;4071678;27;20272;31
2021/03/05 17:12:28;;;;;;;23.65;13.00;;;4.50;65.40;;;;;;3843191;30;21363;31
2021/03/05 17:15:39;;;;;;;;;;;;;;;;;;;;;
2021/03/05 17:21:17;;;;;;;21.48;12.00;;;4.30;66.50;;;;;;4039660;27;20126;31
2021/03/05 17:26:15;;;;;;;25.50;14.30;;;4.30;65.90;;;;;;4020407;27;21359;31
2021/03/05 17:28:45;;;;;;;22.63;11.17;;;4.20;66.00;;;;;;4010900;27;20127;31
2021/03/05 17:31:15;;;;;;;28.55;13.65;;;4.30;65.80;;;;;;4019087;35;20103;31
2021/03/05 17:41:15;;;;;;;39.50;21.10;;;4.30;66.30;;;;;;4032710;27;21326;31
2021/03/05 17:44:06;;;;;;;34.65;19.00;;;4.30;66.60;;;;;;3993576;27;20115;31
2021/03/05 17:49:26;;;;;;;36.50;16.40;;;4.30;67.00;;;;;;4029067;33;21048;31
2021/03/05 17:54:24;;;;;;;25.95;14.27;;;4.20;67.10;;;;;;4029929;33;20102;31
2021/03/05 18:02:19;;;;;;;25.35;14.75;;;4.30;66.40;;;;;;4033594;33;20113;31
2021/03/05 18:43:18;;;;;;;28.75;16.65;;;3.80;69.60;;;;;;4076251;27;20164;31
2021/03/05 18:45:45;;;;;;;25.73;16.75;;;3.80;70.60;;;;;;4018180;35;20118;31
2021/03/05 18:51:14;;;;;;;23.45;15.18;;;3.80;69.50;;;;;;4077843;27;20114;31
2021/03/05 18:57:26;;;;;;;28.02;15.88;;;3.80;69.30;;;;;;4068546;27;20457;31
2021/03/05 18:59:57;;;;;;;22.23;14.73;;;3.80;70.20;;;;;;4044906;27;20112;31
2021/03/05 19:02:23;;;;;;;27.13;15.98;;;3.80;69.60;;;;;;3994684;33;20117;31
